This is the latest recevied weather packets stored in our database for station/object W2OBX. If no packets are shown the sender has not sent any weather packets the latest 10 day(s).
| Time | Temp. | Humidity | Pressure | Rain* | Wind** | Luminosity | Snow |
|---|---|---|---|---|---|---|---|
| 1777316898 | 28.33° C | 48% | 1017.6 hPa | 0 mm | - | 577 W/m² | - |
| 1777316596 | 27.78° C | 49% | 1017.6 hPa | 0 mm | - | 545 W/m² | - |
| 1777316292 | 27.22° C | 51% | 1017.6 hPa | 0 mm | - | 558 W/m² | - |
| 1777315989 | 27.22° C | 52% | 1017.6 hPa | 0 mm | - | 603 W/m² | - |
| 1777315683 | 28.33° C | 52% | 1017.7 hPa | 0 mm | - | 353 W/m² | - |
| 1777315380 | 27.78° C | 52% | 1017.8 hPa | 0 mm | - | 662 W/m² | - |
| 1777315078 | 27.78° C | 51% | 1017.8 hPa | 0 mm | - | 724 W/m² | - |
| 1777314778 | 27.78° C | 50% | 1017.8 hPa | 0 mm | - | 454 W/m² | - |
| 1777314475 | 27.22° C | 59% | 1017.8 hPa | 0 mm | - | 628 W/m² | - |
| 1777314172 | 27.22° C | 53% | 1018.1 hPa | 0 mm | - | 578 W/m² | - |
| 1777313870 | 27.78° C | 51% | 1018.1 hPa | 0 mm | - | 529 W/m² | - |
| 1777313567 | 27.78° C | 49% | 1018.1 hPa | 0 mm | - | 505 W/m² | - |
| 1777313265 | 28.33° C | 51% | 1018.1 hPa | 0 mm | - | 133 W/m² | - |
| 1777312960 | 27.22° C | 51% | 1018.3 hPa | 0 mm | - | 662 W/m² | - |
| 1777312657 | 27.22° C | 53% | 1018.3 hPa | 0 mm | - | 687 W/m² | - |
| 1777312354 | 26.67° C | 57% | 1018.3 hPa | 0 mm | - | 690 W/m² | - |
| 1777312051 | 26.11° C | 53% | 1018.5 hPa | 0 mm | - | 661 W/m² | - |
| 1777311748 | 26.67° C | 55% | 1018.6 hPa | 0 mm | - | 714 W/m² | - |
| 1777311446 | 27.78° C | 52% | 1018.7 hPa | 0 mm | - | 691 W/m² | - |
| 1777311143 | 27.22° C | 54% | 1018.8 hPa | 0 mm | - | 726 W/m² | - |
| 1777310841 | 26.67° C | 55% | 1018.9 hPa | 0 mm | - | 719 W/m² | - |
| 1777310538 | 26.67° C | 54% | 1018.9 hPa | 0 mm | - | 700 W/m² | - |
| 1777310235 | 26.67° C | 57% | 1018.9 hPa | 0 mm | - | 663 W/m² | - |
| 1777309932 | 26.67° C | 56% | 1018.9 hPa | 0 mm | - | 661 W/m² | - |
| 1777309630 | 25.56° C | 58% | 1019.1 hPa | 0 mm | - | 672 W/m² | - |
* Rain latest hour (hover to see other rain measurements)
** Current wind speed in m/s (hover to see current wind gust speed)